Huntington, New York
Current Conditions -  °F | °C
As of 9:53 PM on Saturday 22 Nov 2014 (Local Time) from KFRG Reporting Station
Clear Clear  
Wind Chill: 37°   Ceiling: Unl
Heat Index: 44°   Visibility: 10mi
Dew Point: 22°   Wind: 14mph
Humidity: 42%   Direction: 250°WSW
Pressure: 30.22"   Gusts: NA
Location:  40.87°N, 73.42°W
Report Text: KFRG 230253Z 25012KT 10SM CLR 07/M06 A3022 RMK AO2 SLP235 T00671056 58008
Loading
Personal Weather Stations






























Interactive Weather Map New forecast layout! Learn more

10-Day Weather Forecast

Advertisements
Track Severe Weather on mobile